Time;durP1;ratioP1;P1;durP2;ratioP2;P2;SDS_P1;SDS_P2;PMS_P1;PMS_P2;Temp;Humidity;BMP_temperature;BMP_pressure;BME280_temperature;BME280_humidity;BME280_pressure;Samples;Min_cycle;Max_cycle;Signal;HPM_P1;HPM_P2
2023/12/26 00:01:32;;;;;;;6.3;3.9;;;;;;;3.84;88.26367;935.3192;;;;
2023/12/26 00:04:08;;;;;;;6.9;3.7;;;;;;;3.85;88.35547;935.3092;;;;
2023/12/26 00:06:46;;;;;;;5;3.2;;;;;;;3.76;88.9209;935.293;;;;
2023/12/26 00:09:23;;;;;;;7;4.5;;;;;;;3.81;88.80664;935.2869;;;;
2023/12/26 00:11:52;;;;;;;7.1;3.6;;;;;;;3.81;88.95313;935.2743;;;;
2023/12/26 00:14:27;;;;;;;5.7;3.7;;;;;;;3.89;88.28418;935.2531;;;;
2023/12/26 00:16:52;;;;;;;4.9;3.3;;;;;;;3.61;89.14746;935.2452;;;;
2023/12/26 00:19:17;;;;;;;5.4;3.2;;;;;;;3.73;89.22852;935.2234;;;;
2023/12/26 00:21:44;;;;;;;5.3;3.3;;;;;;;3.79;88.68164;935.1633;;;;
2023/12/26 00:24:18;;;;;;;5.4;3.2;;;;;;;3.73;88.58984;935.1975;;;;
2023/12/26 00:26:43;;;;;;;4;3.1;;;;;;;3.68;88.8252;935.152;;;;
2023/12/26 00:29:08;;;;;;;4.3;2.9;;;;;;;3.72;89.34961;935.1885;;;;
2023/12/26 00:31:35;;;;;;;6.5;3.6;;;;;;;3.73;89.12891;935.0969;;;;
2023/12/26 00:34:00;;;;;;;5.6;3.6;;;;;;;3.74;88.65918;935.0563;;;;
2023/12/26 00:36:25;;;;;;;5.5;3.5;;;;;;;3.86;88.67188;935.1678;;;;
2023/12/26 00:38:56;;;;;;;5.8;3.4;;;;;;;3.94;88.09082;935.1072;;;;
2023/12/26 00:41:21;;;;;;;6.3;3.4;;;;;;;3.75;88.55957;935.0753;;;;
2023/12/26 00:43:50;;;;;;;124.6;59;;;;;;;3.64;88.43555;935.08;;;;
2023/12/26 00:46:13;;;;;;;41.8;20.2;;;;;;;3.7;88.5498;935.0865;;;;
2023/12/26 00:48:40;;;;;;;43.8;19.8;;;;;;;3.73;88.46582;935.103;;;;
2023/12/26 00:51:06;;;;;;;21.4;11.7;;;;;;;3.73;88.66797;935.1024;;;;
2023/12/26 00:53:31;;;;;;;7.4;4.3;;;;;;;3.73;88.48828;935.0086;;;;
2023/12/26 00:56:08;;;;;;;4.3;3;;;;;;;3.63;88.48828;934.986;;;;
2023/12/26 00:58:37;;;;;;;6.3;4.3;;;;;;;3.54;88.85156;934.9947;;;;
2023/12/26 01:01:04;;;;;;;7.3;3.8;;;;;;;3.49;89.16797;935.0837;;;;
2023/12/26 01:03:41;;;;;;;5.9;4.5;;;;;;;3.5;89.0459;935.0637;;;;
2023/12/26 01:06:06;;;;;;;9.4;5.9;;;;;;;3.59;89.11133;935.0428;;;;
2023/12/26 01:08:31;;;;;;;5.1;3.1;;;;;;;3.71;88.47168;935.0883;;;;
2023/12/26 01:10:56;;;;;;;5.3;3;;;;;;;3.69;88.2207;935.0854;;;;
2023/12/26 01:13:22;;;;;;;8.4;4.6;;;;;;;3.54;88.51465;935.1096;;;;
2023/12/26 01:15:51;;;;;;;9.8;5.8;;;;;;;3.65;88.57227;935.0723;;;;
2023/12/26 01:18:19;;;;;;;4.7;3.5;;;;;;;3.7;88.28027;935.0715;;;;
2023/12/26 01:20:46;;;;;;;3.6;2.5;;;;;;;3.71;88.23535;935.0648;;;;
2023/12/26 01:23:19;;;;;;;4.2;2.8;;;;;;;3.65;88.22461;935.1379;;;;
2023/12/26 01:25:44;;;;;;;5.7;3.9;;;;;;;3.65;87.77441;935.0922;;;;
2023/12/26 01:28:09;;;;;;;5.4;3.2;;;;;;;3.71;87.53906;935.0945;;;;
2023/12/26 01:30:38;;;;;;;3.9;2.6;;;;;;;3.8;87.38867;935.1476;;;;
2023/12/26 01:33:01;;;;;;;3;1.8;;;;;;;3.89;87.03613;935.0513;;;;
2023/12/26 01:35:26;;;;;;;2.3;1.7;;;;;;;3.8;87.05371;935.0993;;;;
2023/12/26 01:37:52;;;;;;;2.7;2.2;;;;;;;3.69;87.24121;935.0852;;;;
2023/12/26 01:40:18;;;;;;;5.5;3.8;;;;;;;3.6;87.18164;935.0832;;;;
2023/12/26 01:42:55;;;;;;;8.2;5.9;;;;;;;3.49;87.79883;935.0831;;;;
2023/12/26 01:45:21;;;;;;;11.4;5.9;;;;;;;3.49;88.05762;935.0139;;;;
2023/12/26 01:47:50;;;;;;;4.9;3;;;;;;;3.51;88.2168;935.0135;;;;
2023/12/26 01:50:22;;;;;;;3;2;;;;;;;3.69;87.77051;935.0405;;;;
2023/12/26 01:52:50;;;;;;;4.3;3;;;;;;;3.69;87.46777;935.0516;;;;
2023/12/26 01:55:20;;;;;;;4.7;2.7;;;;;;;3.66;87.99902;935.0773;;;;
2023/12/26 01:57:46;;;;;;;2.6;2.3;;;;;;;3.54;88.26758;935.0435;;;;
2023/12/26 02:00:13;;;;;;;4.2;2.5;;;;;;;3.54;88.39063;935.1489;;;;
2023/12/26 02:02:36;;;;;;;5.8;4.1;;;;;;;3.49;88.30273;935.0972;;;;
2023/12/26 02:05:01;;;;;;;6.3;3.8;;;;;;;3.66;88.08984;935.09;;;;
2023/12/26 02:07:27;;;;;;;4;2.7;;;;;;;3.76;87.41504;935.0411;;;;
2023/12/26 02:09:52;;;;;;;4;2.4;;;;;;;3.81;87.11133;934.9988;;;;
2023/12/26 02:12:19;;;;;;;3.7;2.3;;;;;;;3.7;87.68262;935.0502;;;;
2023/12/26 02:14:49;;;;;;;4;2.4;;;;;;;3.5;88.0127;935.0683;;;;
2023/12/26 02:17:15;;;;;;;3.5;2.5;;;;;;;3.54;87.97559;935.005;;;;
2023/12/26 02:19:45;;;;;;;3.1;1.9;;;;;;;3.55;88.2041;934.9755;;;;
2023/12/26 02:22:10;;;;;;;2.2;1.9;;;;;;;3.49;88.53906;935.032;;;;
2023/12/26 02:24:36;;;;;;;2.5;1.8;;;;;;;3.61;88.44141;934.973;;;;
2023/12/26 02:27:03;;;;;;;2;1.8;;;;;;;3.57;88.63379;934.9556;;;;
2023/12/26 02:29:28;;;;;;;2.5;1.7;;;;;;;3.58;88.93945;934.9756;;;;
2023/12/26 02:31:53;;;;;;;2.1;1.6;;;;;;;3.72;88.38379;934.95;;;;
2023/12/26 02:34:23;;;;;;;1.8;1.4;;;;;;;3.8;88.01855;934.95;;;;
2023/12/26 02:36:54;;;;;;;2.8;1.6;;;;;;;3.78;87.94727;935.0008;;;;
2023/12/26 02:39:20;;;;;;;1.7;1.6;;;;;;;3.59;88.41309;934.9247;;;;
2023/12/26 02:41:51;;;;;;;2.4;1.9;;;;;;;3.75;88.34375;934.9171;;;;
2023/12/26 02:44:16;;;;;;;2.4;1.8;;;;;;;3.69;88.625;934.9634;;;;
2023/12/26 02:46:41;;;;;;;2.3;1.7;;;;;;;3.74;88.55762;934.8791;;;;
2023/12/26 02:49:09;;;;;;;2.4;1.6;;;;;;;3.65;88.59473;934.878;;;;
2023/12/26 02:51:35;;;;;;;3.3;1.9;;;;;;;3.7;88.46973;934.8761;;;;
2023/12/26 02:53:59;;;;;;;2.8;1.7;;;;;;;3.74;88.26367;934.7924;;;;
2023/12/26 02:56:27;;;;;;;2.2;1.9;;;;;;;3.75;88.24316;934.8351;;;;
2023/12/26 02:58:52;;;;;;;3.6;1.8;;;;;;;3.74;88.43164;934.8585;;;;
2023/12/26 03:01:22;;;;;;;3.2;1.9;;;;;;;3.72;88.51855;934.8335;;;;
2023/12/26 03:03:47;;;;;;;3;1.9;;;;;;;3.69;88.83887;934.8225;;;;
2023/12/26 03:06:15;;;;;;;3;1.8;;;;;;;3.83;88.43945;934.9015;;;;
2023/12/26 03:08:47;;;;;;;4;1.7;;;;;;;3.67;88.85742;934.9014;;;;
2023/12/26 03:11:14;;;;;;;2.6;2;;;;;;;3.69;89.00684;934.85;;;;
2023/12/26 03:13:39;;;;;;;3.1;2;;;;;;;3.75;88.75098;934.8469;;;;
2023/12/26 03:16:07;;;;;;;3;1.8;;;;;;;3.8;88.47852;934.7555;;;;
2023/12/26 03:18:32;;;;;;;2.1;1.5;;;;;;;3.8;88.11035;934.8284;;;;
2023/12/26 03:20:57;;;;;;;2;1.7;;;;;;;3.89;87.51953;934.8017;;;;
2023/12/26 03:23:29;;;;;;;3;1.9;;;;;;;3.94;87.46191;934.7629;;;;
2023/12/26 03:25:59;;;;;;;2.2;1.8;;;;;;;3.87;87.52734;934.75;;;;
2023/12/26 03:28:27;;;;;;;2.6;1.6;;;;;;;3.7;88.06641;934.8267;;;;
2023/12/26 03:30:55;;;;;;;8.2;3.9;;;;;;;3.68;88.20703;934.8781;;;;
2023/12/26 03:33:21;;;;;;;8.7;5;;;;;;;3.72;88.2168;934.8541;;;;
2023/12/26 03:35:46;;;;;;;4.8;3.1;;;;;;;3.77;88.35938;934.8782;;;;
2023/12/26 03:38:15;;;;;;;2.6;1.9;;;;;;;3.89;87.7666;934.8497;;;;
2023/12/26 03:40:39;;;;;;;1.8;1.5;;;;;;;3.83;88.29492;934.8488;;;;
2023/12/26 03:43:08;;;;;;;2.4;1.8;;;;;;;3.75;88.58203;934.8132;;;;
2023/12/26 03:45:34;;;;;;;2.6;2;;;;;;;3.67;88.48633;934.8431;;;;
2023/12/26 03:48:06;;;;;;;3;1.6;;;;;;;3.72;89.08008;934.8855;;;;
2023/12/26 03:50:35;;;;;;;2.3;1.6;;;;;;;3.72;89.3291;934.8738;;;;
2023/12/26 03:53:00;;;;;;;2.1;1.5;;;;;;;3.9;88.20898;934.8753;;;;
2023/12/26 03:55:31;;;;;;;2.6;1.8;;;;;;;3.8;88.44531;934.9697;;;;
2023/12/26 03:58:01;;;;;;;3.2;1.8;;;;;;;3.75;88.47852;934.9406;;;;
2023/12/26 04:02:40;;;;;;;3.9;2.2;;;;;;;3.57;89.12891;934.9572;;;;
2023/12/26 04:05:04;;;;;;;3.3;1.9;;;;;;;3.68;88.94922;934.9968;;;;
2023/12/26 04:07:33;;;;;;;2.1;1.7;;;;;;;3.68;88.83691;934.9521;;;;
2023/12/26 04:10:04;;;;;;;4.3;2.2;;;;;;;3.71;88.80859;935.0617;;;;
2023/12/26 04:12:40;;;;;;;3.1;2.3;;;;;;;3.66;89.15723;934.9286;;;;
2023/12/26 04:15:10;;;;;;;3.8;2.2;;;;;;;3.76;88.89844;935.007;;;;
2023/12/26 04:17:42;;;;;;;2.3;1.9;;;;;;;3.84;88.27441;935.02;;;;
2023/12/26 04:20:12;;;;;;;3.3;2.2;;;;;;;3.82;88.33691;935.0012;;;;
2023/12/26 04:22:37;;;;;;;4.3;2.3;;;;;;;3.79;88.44336;935.0286;;;;
2023/12/26 04:25:11;;;;;;;5.2;3.5;;;;;;;3.65;88.81934;935.014;;;;
2023/12/26 04:27:44;;;;;;;4;2.7;;;;;;;3.69;88.82715;935.057;;;;
2023/12/26 04:30:12;;;;;;;4.6;3;;;;;;;3.63;88.98242;934.9694;;;;
2023/12/26 04:32:38;;;;;;;6.5;2.4;;;;;;;3.55;89.43945;934.9645;;;;
2023/12/26 04:35:09;;;;;;;3.4;2.2;;;;;;;3.51;89.60938;934.9664;;;;
2023/12/26 04:37:34;;;;;;;3.5;2.2;;;;;;;3.52;89.45605;934.962;;;;
2023/12/26 04:40:05;;;;;;;3.6;2.6;;;;;;;3.51;89.3623;935.0144;;;;
2023/12/26 04:42:30;;;;;;;3.7;2.3;;;;;;;3.59;89.25781;934.9752;;;;
2023/12/26 04:45:00;;;;;;;2.9;2.2;;;;;;;3.65;89.26953;934.9487;;;;
2023/12/26 04:47:28;;;;;;;3.3;2.6;;;;;;;3.69;89.23145;935.05;;;;
2023/12/26 04:49:58;;;;;;;3.8;2.1;;;;;;;3.68;89.29688;935.1238;;;;
2023/12/26 04:52:23;;;;;;;2.8;1.8;;;;;;;3.52;89.63574;935.0817;;;;
2023/12/26 04:54:48;;;;;;;2;1.7;;;;;;;3.51;89.81152;935.1309;;;;
2023/12/26 04:57:13;;;;;;;2.5;2;;;;;;;3.65;89.39258;935.066;;;;
2023/12/26 04:59:38;;;;;;;2.7;1.8;;;;;;;3.59;89.67188;935.0782;;;;
2023/12/26 05:02:07;;;;;;;2.5;1.8;;;;;;;3.6;89.8418;935.1145;;;;
2023/12/26 05:04:38;;;;;;;2.4;1.9;;;;;;;3.62;89.62305;935.1597;;;;
2023/12/26 05:07:03;;;;;;;3.1;2;;;;;;;3.55;89.78711;935.2321;;;;
2023/12/26 05:09:35;;;;;;;3.8;1.8;;;;;;;3.56;89.47266;935.2622;;;;
2023/12/26 05:12:06;;;;;;;3.6;1.7;;;;;;;3.56;89.65234;935.2661;;;;
2023/12/26 05:14:40;;;;;;;3.1;1.9;;;;;;;3.63;89.80469;935.2853;;;;
2023/12/26 05:17:08;;;;;;;3.3;2.1;;;;;;;3.72;89.43945;935.1342;;;;
2023/12/26 05:19:37;;;;;;;2.7;2.2;;;;;;;3.73;89.24121;935.3361;;;;
2023/12/26 05:22:02;;;;;;;3.1;2.1;;;;;;;3.71;89.30273;935.3331;;;;
2023/12/26 05:24:27;;;;;;;2;1.8;;;;;;;3.63;89.83691;935.3655;;;;
2023/12/26 05:26:52;;;;;;;3.7;1.9;;;;;;;3.66;89.74316;935.3334;;;;
2023/12/26 05:29:22;;;;;;;2.8;1.8;;;;;;;3.69;89.49023;935.3254;;;;
2023/12/26 05:31:47;;;;;;;2;1.4;;;;;;;3.62;89.76758;935.4067;;;;
2023/12/26 05:34:11;;;;;;;1.9;1.7;;;;;;;3.64;89.80664;935.354;;;;
2023/12/26 05:36:38;;;;;;;1.7;1.5;;;;;;;3.68;89.75781;935.4246;;;;
2023/12/26 05:39:04;;;;;;;1.8;1.4;;;;;;;3.71;89.57227;935.2899;;;;
2023/12/26 05:41:31;;;;;;;1.7;1.6;;;;;;;3.71;89.42676;935.2766;;;;
2023/12/26 05:43:56;;;;;;;2.5;1.6;;;;;;;3.76;89.23535;935.3639;;;;
2023/12/26 05:46:25;;;;;;;2.4;1.7;;;;;;;3.77;89.26953;935.2656;;;;
2023/12/26 05:48:50;;;;;;;2.4;1.6;;;;;;;3.73;89.65723;935.4023;;;;
2023/12/26 05:51:20;;;;;;;1.6;1.2;;;;;;;3.67;89.83496;935.3516;;;;
2023/12/26 05:53:50;;;;;;;2;1.5;;;;;;;3.84;89.41992;935.3553;;;;
2023/12/26 05:56:15;;;;;;;2.2;1.4;;;;;;;3.74;89.57813;935.3686;;;;
2023/12/26 05:58:45;;;;;;;1.9;1.5;;;;;;;3.77;89.65527;935.4194;;;;
2023/12/26 06:01:10;;;;;;;2.3;1.4;;;;;;;3.8;89.46777;935.3588;;;;
2023/12/26 06:03:39;;;;;;;5;3.3;;;;;;;3.82;89.34863;935.4124;;;;
2023/12/26 06:08:26;;;;;;;7;4.3;;;;;;;3.87;89.01074;935.4077;;;;
2023/12/26 06:10:51;;;;;;;4.9;3.3;;;;;;;3.83;89.34082;935.3984;;;;
2023/12/26 06:13:19;;;;;;;3.8;2.6;;;;;;;3.81;89.44922;935.4036;;;;
2023/12/26 06:15:44;;;;;;;3.5;2.3;;;;;;;3.84;89.30664;935.3553;;;;
2023/12/26 06:18:13;;;;;;;3.7;2.7;;;;;;;3.86;89.24512;935.4709;;;;
2023/12/26 06:20:42;;;;;;;2.5;2.3;;;;;;;3.8;89.46973;935.397;;;;
2023/12/26 06:23:07;;;;;;;3;2.5;;;;;;;3.76;89.60645;935.3766;;;;
2023/12/26 06:25:34;;;;;;;2;1.7;;;;;;;3.8;89.50391;935.4222;;;;
2023/12/26 06:27:59;;;;;;;3.8;2.5;;;;;;;3.83;89.68945;935.493;;;;
2023/12/26 06:30:26;;;;;;;7.5;5.9;;;;;;;3.87;89.57324;935.5266;;;;
2023/12/26 06:32:51;;;;;;;5.3;4.5;;;;;;;3.93;89.56445;935.4779;;;;
2023/12/26 06:35:18;;;;;;;5.1;4.4;;;;;;;3.89;89.99316;935.5159;;;;
2023/12/26 06:37:43;;;;;;;4.4;3.4;;;;;;;3.91;89.91992;935.6639;;;;
2023/12/26 06:40:12;;;;;;;3.3;2.9;;;;;;;3.94;89.54297;935.6397;;;;
2023/12/26 06:42:37;;;;;;;3.2;2.7;;;;;;;3.92;89.65039;935.6539;;;;
2023/12/26 06:45:04;;;;;;;2.6;2.2;;;;;;;3.95;89.48926;935.8187;;;;
2023/12/26 06:47:29;;;;;;;2.9;2.3;;;;;;;3.89;90.00391;935.7364;;;;
2023/12/26 06:49:57;;;;;;;2.5;2.2;;;;;;;3.9;90.07324;935.9116;;;;
2023/12/26 06:52:23;;;;;;;3.7;2.3;;;;;;;3.85;90.23242;935.8787;;;;
2023/12/26 06:54:48;;;;;;;3.9;2.6;;;;;;;3.92;89.88574;935.9264;;;;
2023/12/26 06:57:15;;;;;;;2.5;2.2;;;;;;;3.89;89.81348;935.9547;;;;
2023/12/26 06:59:37;;;;;;;2.3;2.1;;;;;;;3.91;89.74023;936.0231;;;;
2023/12/26 07:02:03;;;;;;;3.5;2.4;;;;;;;3.86;89.62793;936.0405;;;;
2023/12/26 07:04:28;;;;;;;3.1;2.3;;;;;;;3.84;89.90234;936.1326;;;;
2023/12/26 07:06:54;;;;;;;4.1;3.2;;;;;;;3.87;89.8877;936.2123;;;;
2023/12/26 07:09:23;;;;;;;6.4;4;;;;;;;3.91;89.77344;936.2215;;;;
2023/12/26 07:11:48;;;;;;;5.4;4.3;;;;;;;3.86;90.00977;936.2531;;;;
2023/12/26 07:14:18;;;;;;;7;4.6;;;;;;;3.94;89.99121;936.3019;;;;
2023/12/26 07:16:49;;;;;;;6.1;3.9;;;;;;;3.94;90.0498;936.3823;;;;
2023/12/26 07:19:14;;;;;;;6.3;4;;;;;;;3.97;89.93164;936.4345;;;;
2023/12/26 07:21:42;;;;;;;5.2;3.5;;;;;;;4.02;89.44629;936.3795;;;;
2023/12/26 07:24:07;;;;;;;4.3;3.8;;;;;;;3.95;89.87109;936.5639;;;;
2023/12/26 07:26:32;;;;;;;7.2;5.1;;;;;;;3.94;90.00293;936.6226;;;;
2023/12/26 07:28:57;;;;;;;8.2;5.1;;;;;;;3.95;89.97266;936.6024;;;;
2023/12/26 07:31:23;;;;;;;8.3;5.3;;;;;;;4.04;89.51953;936.6346;;;;
2023/12/26 07:33:51;;;;;;;6.6;4.4;;;;;;;3.91;89.70605;936.676;;;;
2023/12/26 07:36:23;;;;;;;5.6;3.7;;;;;;;3.98;89.66309;936.6671;;;;
2023/12/26 07:38:49;;;;;;;5.7;4.1;;;;;;;4.01;89.78125;936.7729;;;;
2023/12/26 07:41:14;;;;;;;5.5;4;;;;;;;3.99;89.64258;936.7257;;;;
2023/12/26 07:43:39;;;;;;;7.6;4.2;;;;;;;3.91;89.875;936.8155;;;;
2023/12/26 07:46:05;;;;;;;5.1;3.9;;;;;;;3.91;89.90723;936.8586;;;;
2023/12/26 07:48:34;;;;;;;6;3.8;;;;;;;3.99;89.85645;936.832;;;;
2023/12/26 07:50:59;;;;;;;4.4;3.7;;;;;;;4.01;89.49121;936.8402;;;;
2023/12/26 07:53:32;;;;;;;5.7;3.6;;;;;;;4.05;89.61133;936.8287;;;;
2023/12/26 07:56:03;;;;;;;5.1;3.5;;;;;;;4.05;89.56836;936.8667;;;;
2023/12/26 07:58:34;;;;;;;6.3;3.8;;;;;;;4.12;89.31152;936.9509;;;;
2023/12/26 08:00:58;;;;;;;5.4;4;;;;;;;4.15;89.21582;936.8429;;;;
2023/12/26 08:03:27;;;;;;;4.2;3.2;;;;;;;4.19;88.97559;936.9197;;;;
2023/12/26 08:06:02;;;;;;;4.2;3.1;;;;;;;4.21;88.98145;936.9775;;;;
2023/12/26 08:08:31;;;;;;;5;3;;;;;;;4.18;89.03223;936.918;;;;
2023/12/26 08:11:01;;;;;;;3.4;2.7;;;;;;;4.23;88.80566;936.9662;;;;
2023/12/26 08:13:39;;;;;;;3;2.7;;;;;;;4.42;88.40625;936.9817;;;;
2023/12/26 08:16:13;;;;;;;5.2;3.7;;;;;;;4.47;87.85254;937.0422;;;;
2023/12/26 08:18:38;;;;;;;5.1;3.3;;;;;;;4.52;87.7168;937.0447;;;;
2023/12/26 08:21:04;;;;;;;8.1;4.7;;;;;;;4.66;87.3623;937.1183;;;;
2023/12/26 08:23:31;;;;;;;7.7;5.2;;;;;;;4.72;87.21875;937.0359;;;;
2023/12/26 08:25:56;;;;;;;5.8;4.5;;;;;;;4.67;87.86133;937.0416;;;;
2023/12/26 08:28:21;;;;;;;5.2;3.6;;;;;;;4.74;87.16504;937.1838;;;;
2023/12/26 08:30:49;;;;;;;5.4;4.2;;;;;;;4.81;86.93359;937.1895;;;;
2023/12/26 08:33:15;;;;;;;8.1;5.9;;;;;;;4.75;87.46094;937.1998;;;;
2023/12/26 08:35:45;;;;;;;9.5;5.9;;;;;;;4.81;87.50781;937.1501;;;;
2023/12/26 08:38:16;;;;;;;9.3;6.9;;;;;;;4.99;86.58301;937.1786;;;;
2023/12/26 08:40:45;;;;;;;8.3;6.6;;;;;;;4.92;87.32715;937.1492;;;;
2023/12/26 08:43:10;;;;;;;8.4;5.4;;;;;;;5.01;87.18652;937.3461;;;;
2023/12/26 08:45:40;;;;;;;7.8;5.3;;;;;;;5.54;87.87109;937.3897;;;;
2023/12/26 08:48:05;;;;;;;6;4.4;;;;;;;6.09;85.40723;937.4175;;;;
2023/12/26 08:50:33;;;;;;;5.6;4;;;;;;;6.4;83.22949;937.4458;;;;
2023/12/26 08:53:00;;;;;;;5.8;3.9;;;;;;;6.41;82.75684;937.5966;;;;
2023/12/26 08:55:24;;;;;;;6.5;4.8;;;;;;;6.81;80.86523;937.6635;;;;
2023/12/26 08:57:52;;;;;;;10.2;5.2;;;;;;;7.36;80.07422;937.6219;;;;
2023/12/26 09:00:17;;;;;;;8.2;4.9;;;;;;;7.59;77.70996;937.5585;;;;
2023/12/26 09:02:45;;;;;;;6.6;4.8;;;;;;;7.36;77.73926;937.6671;;;;
2023/12/26 09:05:10;;;;;;;7.4;4.4;;;;;;;7.21;78.10742;937.6806;;;;
2023/12/26 09:07:41;;;;;;;9.4;4.8;;;;;;;7.18;77.60449;937.8056;;;;
2023/12/26 09:10:10;;;;;;;5.4;4;;;;;;;7.19;77.18652;937.7963;;;;
2023/12/26 09:12:38;;;;;;;5.1;3.9;;;;;;;7.4;77.65527;937.8682;;;;
2023/12/26 09:15:03;;;;;;;4.8;3.7;;;;;;;7.52;76.28125;937.9485;;;;
2023/12/26 09:17:32;;;;;;;7.1;3.9;;;;;;;7.37;76.81152;937.9113;;;;
2023/12/26 09:19:57;;;;;;;5.9;3.9;;;;;;;7.24;76.65137;937.9947;;;;
2023/12/26 09:22:22;;;;;;;6.3;3.9;;;;;;;7.18;76.68652;937.9925;;;;
2023/12/26 09:24:50;;;;;;;5.8;4.4;;;;;;;7.17;77.9541;937.9994;;;;
2023/12/26 09:27:15;;;;;;;6.1;4.3;;;;;;;7.07;77.71875;938.1255;;;;
2023/12/26 09:29:43;;;;;;;6.9;4.5;;;;;;;7.12;78.83887;938.0759;;;;
2023/12/26 09:32:08;;;;;;;7.7;4.6;;;;;;;7.25;78.19336;938.1265;;;;
2023/12/26 09:34:40;;;;;;;8.9;5.4;;;;;;;7.76;79.99902;938.1501;;;;
2023/12/26 09:37:13;;;;;;;14.3;7.6;;;;;;;8.75;76.5;938.0933;;;;
2023/12/26 09:39:41;;;;;;;33.8;15.3;;;;;;;9.54;71.84473;938.1567;;;;
2023/12/26 09:42:06;;;;;;;25.3;13.4;;;;;;;10;69.80078;938.0061;;;;
2023/12/26 09:44:32;;;;;;;24.8;12.8;;;;;;;10.53;68.29785;938.0658;;;;
2023/12/26 09:47:04;;;;;;;23.1;12.2;;;;;;;10.73;66.55078;938.0726;;;;
2023/12/26 09:49:31;;;;;;;21.1;11;;;;;;;10.5;65.07422;938.1531;;;;
2023/12/26 09:51:56;;;;;;;11.8;7.6;;;;;;;9.94;66.43848;938.1295;;;;
2023/12/26 09:54:26;;;;;;;9.7;6.6;;;;;;;9.67;68.0166;938.312;;;;
2023/12/26 09:56:51;;;;;;;6.2;4.4;;;;;;;9.34;66.99609;938.2515;;;;
2023/12/26 09:59:19;;;;;;;8.3;4.9;;;;;;;9.1;69.14258;938.2858;;;;
2023/12/26 10:01:45;;;;;;;6.7;4.8;;;;;;;9;70.19629;938.2776;;;;
2023/12/26 10:04:13;;;;;;;6.9;4.2;;;;;;;8.91;70.53516;938.3074;;;;
2023/12/26 10:06:39;;;;;;;7.5;4.3;;;;;;;8.86;69.58105;938.3669;;;;
2023/12/26 10:09:06;;;;;;;7.3;4.3;;;;;;;8.82;69.96191;938.3273;;;;
2023/12/26 10:11:32;;;;;;;6.4;4;;;;;;;8.83;70.16992;938.3005;;;;
2023/12/26 10:14:00;;;;;;;8.4;5.6;;;;;;;8.78;70.76367;938.2812;;;;
2023/12/26 10:16:25;;;;;;;9.3;6.4;;;;;;;8.86;71.2207;938.1708;;;;
2023/12/26 10:18:51;;;;;;;9.6;6.5;;;;;;;8.71;71.09277;938.2523;;;;
2023/12/26 10:21:17;;;;;;;10;6.6;;;;;;;8.76;71.5791;938.2388;;;;
2023/12/26 10:23:41;;;;;;;8.6;6;;;;;;;9.08;71.5752;938.299;;;;
2023/12/26 10:26:08;;;;;;;9;5.1;;;;;;;9.56;70.07129;938.2626;;;;
2023/12/26 10:28:33;;;;;;;7.8;5.6;;;;;;;9.91;68.82813;938.2946;;;;
2023/12/26 10:30:59;;;;;;;8.4;5.3;;;;;;;10.03;68.43652;938.2875;;;;
2023/12/26 10:33:27;;;;;;;5.6;4;;;;;;;10.27;67.19824;938.2597;;;;
2023/12/26 10:35:52;;;;;;;5.8;4.3;;;;;;;10.34;65.99707;938.2564;;;;
2023/12/26 10:38:19;;;;;;;5.7;3.7;;;;;;;10.53;64.88574;938.1813;;;;
2023/12/26 10:40:43;;;;;;;5.5;3.9;;;;;;;10.61;65.49023;938.2314;;;;
2023/12/26 10:43:09;;;;;;;5.5;3.7;;;;;;;10.66;65.66992;938.2154;;;;
2023/12/26 10:45:41;;;;;;;12.8;7.7;;;;;;;10.66;65.39551;938.2138;;;;
2023/12/26 10:48:10;;;;;;;9.5;6.2;;;;;;;10.5;64.37988;938.1619;;;;
2023/12/26 10:50:35;;;;;;;8.5;5.2;;;;;;;10.58;62.90723;938.1642;;;;
2023/12/26 10:53:05;;;;;;;4.8;3.5;;;;;;;10.71;61.08691;938.1513;;;;
2023/12/26 10:55:30;;;;;;;5.3;3.3;;;;;;;10.92;60.56738;938.0585;;;;
2023/12/26 10:57:57;;;;;;;5.9;3.2;;;;;;;10.95;59.28125;937.9019;;;;
2023/12/26 11:00:25;;;;;;;4.7;3.2;;;;;;;10.96;59.00781;937.9911;;;;
2023/12/26 11:02:51;;;;;;;5.7;3;;;;;;;10.96;59.45215;938.062;;;;
2023/12/26 11:05:22;;;;;;;3.8;2.4;;;;;;;10.97;59.85352;938.0764;;;;
2023/12/26 11:07:50;;;;;;;4.2;2;;;;;;;10.92;59.54883;938.0298;;;;
2023/12/26 11:10:15;;;;;;;2.6;1.7;;;;;;;10.89;58.87109;937.985;;;;
2023/12/26 11:12:49;;;;;;;1.9;1.4;;;;;;;10.88;58.27539;937.9316;;;;
2023/12/26 11:15:14;;;;;;;1.9;1.6;;;;;;;10.82;58.80371;938.0562;;;;
2023/12/26 11:17:46;;;;;;;1.5;1.3;;;;;;;10.79;57.04199;938.0493;;;;
2023/12/26 11:20:16;;;;;;;1.5;1.2;;;;;;;10.67;55.81445;938.0547;;;;
2023/12/26 11:22:45;;;;;;;1.8;1.5;;;;;;;10.53;57.08789;938.1176;;;;
2023/12/26 11:25:10;;;;;;;1.7;1.5;;;;;;;10.56;57.43359;938.082;;;;
2023/12/26 11:27:38;;;;;;;2.2;1.9;;;;;;;10.44;58.23926;938.0745;;;;
2023/12/26 11:30:03;;;;;;;2;1.7;;;;;;;10.05;57.86719;937.991;;;;
2023/12/26 11:32:32;;;;;;;2.8;1.7;;;;;;;10.03;58.90234;938.0146;;;;
2023/12/26 11:35:01;;;;;;;2.7;2;;;;;;;9.86;59.01758;937.9688;;;;
2023/12/26 11:37:26;;;;;;;2.7;1.7;;;;;;;9.82;60.48145;937.9476;;;;
2023/12/26 11:39:54;;;;;;;2.5;2.2;;;;;;;9.86;58.9707;937.9417;;;;
2023/12/26 11:42:19;;;;;;;2.8;1.9;;;;;;;9.8;59.86328;937.9153;;;;
2023/12/26 11:44:50;;;;;;;2.9;1.9;;;;;;;9.88;61.00195;937.9012;;;;
2023/12/26 11:47:19;;;;;;;2.6;2;;;;;;;9.96;59.8623;937.9102;;;;
2023/12/26 11:49:45;;;;;;;2.2;1.8;;;;;;;9.88;60.05566;937.8544;;;;
2023/12/26 11:52:16;;;;;;;2.4;1.6;;;;;;;9.9;58.88379;937.8547;;;;
2023/12/26 11:54:47;;;;;;;2.1;1.5;;;;;;;9.89;58.13184;937.8879;;;;
2023/12/26 11:57:16;;;;;;;1.9;1.7;;;;;;;9.71;59.65625;937.9841;;;;
2023/12/26 11:59:41;;;;;;;2.6;1.7;;;;;;;9.77;60.54199;938.015;;;;
2023/12/26 12:02:10;;;;;;;1.5;1.3;;;;;;;9.8;58.83789;938.0472;;;;
2023/12/26 12:04:35;;;;;;;1.7;1.5;;;;;;;9.68;58.84473;938.0101;;;;
2023/12/26 12:07:00;;;;;;;2.6;1.4;;;;;;;9.66;58.96777;938.0528;;;;
2023/12/26 12:09:25;;;;;;;1.8;1.4;;;;;;;9.65;57.74414;938.1106;;;;
2023/12/26 12:11:51;;;;;;;2;1.3;;;;;;;9.73;57.28906;938.0616;;;;
2023/12/26 12:14:16;;;;;;;1.9;1.4;;;;;;;9.79;57.30859;938.0876;;;;
2023/12/26 12:16:44;;;;;;;2;1.5;;;;;;;9.8;58.08496;938.1411;;;;
2023/12/26 12:19:10;;;;;;;3;1.5;;;;;;;9.88;58.91602;938.1519;;;;
2023/12/26 12:21:35;;;;;;;3;1.6;;;;;;;9.81;56.22852;938.1953;;;;
2023/12/26 12:24:02;;;;;;;1.9;1.5;;;;;;;9.81;56.71875;938.1968;;;;
2023/12/26 12:26:27;;;;;;;2.3;1.4;;;;;;;9.86;58.06934;938.2463;;;;
2023/12/26 12:28:52;;;;;;;2.7;1.6;;;;;;;9.89;57.83496;938.2673;;;;
2023/12/26 12:31:20;;;;;;;2.8;1.6;;;;;;;9.98;58.26953;938.2675;;;;
2023/12/26 12:33:45;;;;;;;2.9;1.5;;;;;;;10.06;57.70996;938.1996;;;;
2023/12/26 12:36:10;;;;;;;2.3;1.5;;;;;;;10.01;57.24512;938.1581;;;;
2023/12/26 12:38:40;;;;;;;2.3;1.7;;;;;;;9.94;57.53418;938.248;;;;
2023/12/26 12:41:05;;;;;;;2.3;1.5;;;;;;;10.01;57.65625;938.1326;;;;
2023/12/26 12:43:33;;;;;;;3;1.7;;;;;;;10;57.14258;938.2407;;;;
2023/12/26 12:46:02;;;;;;;2.4;1.3;;;;;;;10.01;56.64258;938.248;;;;
2023/12/26 12:48:29;;;;;;;4.4;1.7;;;;;;;10.06;56.81934;938.3292;;;;
2023/12/26 12:50:57;;;;;;;4.2;1.8;;;;;;;10.07;56.58203;938.3276;;;;
2023/12/26 12:53:22;;;;;;;2.6;1.7;;;;;;;10.08;57.34668;938.3063;;;;
2023/12/26 12:55:50;;;;;;;1.8;1.4;;;;;;;10.09;57.94141;938.3105;;;;
2023/12/26 12:58:16;;;;;;;2.5;1.7;;;;;;;10.09;58.99121;938.3232;;;;
2023/12/26 13:00:42;;;;;;;2.3;1.7;;;;;;;10.17;58.40918;938.3535;;;;
2023/12/26 13:03:07;;;;;;;5;1.8;;;;;;;10.18;57.96387;938.4084;;;;
2023/12/26 13:05:39;;;;;;;2.5;1.7;;;;;;;10.17;58.36328;938.5039;;;;
2023/12/26 13:08:04;;;;;;;2.5;1.7;;;;;;;10.16;59.13672;938.5276;;;;
2023/12/26 13:10:34;;;;;;;4.1;2.5;;;;;;;10.08;59.31934;938.5656;;;;
2023/12/26 13:13:03;;;;;;;4.9;2.4;;;;;;;10.08;60.1748;938.6595;;;;
2023/12/26 13:15:28;;;;;;;5.2;2.6;;;;;;;10.12;60.70605;938.5828;;;;
2023/12/26 13:17:55;;;;;;;4.6;2.7;;;;;;;10.08;61.45313;938.6595;;;;
2023/12/26 13:20:20;;;;;;;3.9;2.8;;;;;;;10.07;60.72266;938.7103;;;;
2023/12/26 13:22:47;;;;;;;4.4;2.8;;;;;;;10.1;60.07617;938.8706;;;;
2023/12/26 13:25:12;;;;;;;4.8;2.9;;;;;;;10.1;60.21289;938.8412;;;;
2023/12/26 13:27:39;;;;;;;3.1;2.3;;;;;;;10.05;61.65332;938.8517;;;;
2023/12/26 13:30:04;;;;;;;4.2;2.9;;;;;;;10.04;63.0791;938.8159;;;;
2023/12/26 13:32:32;;;;;;;4;3.1;;;;;;;10.06;60.34473;938.8176;;;;
2023/12/26 13:35:01;;;;;;;4.6;3;;;;;;;10.11;59.64355;938.7864;;;;
2023/12/26 13:37:26;;;;;;;4.9;3;;;;;;;10.13;59.38379;938.7198;;;;
2023/12/26 13:39:54;;;;;;;5;3.3;;;;;;;10.06;59.99121;938.6434;;;;
2023/12/26 13:42:19;;;;;;;4.9;3;;;;;;;10;60.94043;938.5789;;;;
2023/12/26 13:44:46;;;;;;;8;4.2;;;;;;;9.98;63.49023;938.7073;;;;
2023/12/26 13:47:13;;;;;;;8.7;5;;;;;;;9.99;62.61523;938.69;;;;
2023/12/26 13:49:43;;;;;;;7.2;4.2;;;;;;;9.87;64.99219;938.6838;;;;
2023/12/26 13:52:09;;;;;;;9;3.7;;;;;;;9.84;65.52344;938.6636;;;;
2023/12/26 13:54:38;;;;;;;5.1;3.5;;;;;;;9.82;64.27734;938.6911;;;;
2023/12/26 13:57:10;;;;;;;4.9;3.5;;;;;;;9.79;64.08984;938.7142;;;;
2023/12/26 13:59:44;;;;;;;6;3.7;;;;;;;9.75;64.4043;938.7361;;;;
2023/12/26 14:02:13;;;;;;;6.3;3.5;;;;;;;9.77;64.33789;938.7482;;;;
2023/12/26 14:04:44;;;;;;;7.3;4.6;;;;;;;9.78;64.51172;938.7126;;;;
2023/12/26 14:07:10;;;;;;;12;6.7;;;;;;;9.71;64.96777;938.6671;;;;
2023/12/26 14:09:35;;;;;;;11.5;5.2;;;;;;;9.59;66.03223;938.6955;;;;
2023/12/26 14:12:01;;;;;;;9.7;5.8;;;;;;;9.52;67.125;938.7548;;;;
2023/12/26 14:14:26;;;;;;;6.8;4.4;;;;;;;9.42;67.90625;938.7837;;;;
2023/12/26 14:16:54;;;;;;;8.3;4.7;;;;;;;9.28;69.97949;938.8845;;;;
2023/12/26 14:19:19;;;;;;;8.3;4.1;;;;;;;9.09;72.60254;938.8703;;;;
2023/12/26 14:21:47;;;;;;;8.4;4.6;;;;;;;9.05;71.83105;938.9371;;;;
2023/12/26 14:24:13;;;;;;;11.5;5.5;;;;;;;9.07;68.54785;938.9574;;;;
2023/12/26 14:26:42;;;;;;;8;5.7;;;;;;;9.01;68.29785;938.8992;;;;
2023/12/26 14:29:05;;;;;;;8.3;5.3;;;;;;;8.88;70.24512;938.904;;;;
2023/12/26 14:31:31;;;;;;;8.5;5.3;;;;;;;8.75;71.81543;938.9316;;;;
2023/12/26 14:33:56;;;;;;;8.8;5.6;;;;;;;8.66;72.1543;938.9714;;;;
2023/12/26 14:36:24;;;;;;;8.6;5.3;;;;;;;8.59;71.50488;938.9753;;;;
2023/12/26 14:38:49;;;;;;;8.3;6.1;;;;;;;8.54;71.41699;938.9745;;;;
2023/12/26 14:41:19;;;;;;;9;5.8;;;;;;;8.47;71.61035;938.9622;;;;
2023/12/26 14:43:49;;;;;;;10.9;6.2;;;;;;;8.39;71.63184;939.0215;;;;